Time;durP1;ratioP1;P1;durP2;ratioP2;P2;SDS_P1;SDS_P2;PMS_P1;PMS_P2;Temp;Humidity;BMP_temperature;BMP_pressure;BME280_temperature;BME280_humidity;BME280_pressure;Samples;Min_cycle;Max_cycle;Signal;HPM_P1;HPM_P2
2023/01/05 00:01:06;;;;;;;16.87;4.80;;;11.30;99.90;;;;;;5083896;28;20423;-40
2023/01/05 00:03:32;;;;;;;11.77;5.50;;;11.40;99.90;;;;;;5090138;28;20184;-42
2023/01/05 00:06:02;;;;;;;14.77;5.40;;;11.40;99.90;;;;;;5089191;28;20434;-41
2023/01/05 00:08:28;;;;;;;15.63;4.93;;;11.40;99.90;;;;;;5085991;28;20437;-42
2023/01/05 00:24:41;;;;;;;22.37;5.27;;;11.40;99.90;;;;;;5089808;28;20433;-40
2023/01/05 00:27:06;;;;;;;18.03;4.50;;;11.40;99.90;;;;;;5092149;28;20418;-43
2023/01/05 00:29:32;;;;;;;15.70;5.27;;;11.40;99.90;;;;;;5074340;28;20549;-42
2023/01/05 00:31:57;;;;;;;16.80;5.80;;;11.40;99.90;;;;;;5055221;28;20307;-42
2023/01/05 00:34:23;;;;;;;19.77;4.77;;;11.40;99.90;;;;;;5073816;28;20227;-41
2023/01/05 00:36:49;;;;;;;13.10;4.83;;;11.40;99.90;;;;;;5073630;28;20291;-41
2023/01/05 00:39:14;;;;;;;14.30;5.30;;;11.40;99.90;;;;;;5072963;28;20208;-43
2023/01/05 00:41:40;;;;;;;17.33;5.23;;;11.40;99.90;;;;;;5073431;28;20216;-41
2023/01/05 00:44:05;;;;;;;13.90;4.80;;;11.40;99.90;;;;;;5055541;28;20315;-42
2023/01/05 00:46:31;;;;;;;16.30;5.50;;;11.40;99.90;;;;;;5073134;28;20207;-40
2023/01/05 00:48:57;;;;;;;14.10;4.47;;;11.40;99.90;;;;;;5072922;28;20185;-41
2023/01/05 00:51:22;;;;;;;13.30;4.83;;;11.40;99.90;;;;;;5072917;28;20205;-42
2023/01/05 00:53:48;;;;;;;11.17;4.87;;;11.40;99.90;;;;;;5073343;28;20173;-42
2023/01/05 00:56:14;;;;;;;14.47;5.43;;;11.30;99.90;;;;;;5073261;28;20173;-42
2023/01/05 00:58:40;;;;;;;16.60;5.23;;;11.30;99.90;;;;;;5073198;28;20263;-42
2023/01/05 01:01:12;;;;;;;18.30;5.30;;;11.30;99.90;;;;;;5072470;28;20560;-40
2023/01/05 01:03:38;;;;;;;19.20;7.00;;;11.30;99.90;;;;;;5072865;28;20585;-43
2023/01/05 01:06:04;;;;;;;17.67;5.30;;;11.30;99.90;;;;;;5073078;28;20924;-43
2023/01/05 01:08:30;;;;;;;17.03;5.70;;;11.30;99.90;;;;;;5072880;28;20411;-42
2023/01/05 01:10:55;;;;;;;14.67;5.83;;;11.30;99.90;;;;;;5072273;28;20461;-41
2023/01/05 01:13:24;;;;;;;15.23;4.70;;;11.30;99.90;;;;;;5072701;28;20177;-42
2023/01/05 01:15:50;;;;;;;14.83;4.60;;;11.30;99.90;;;;;;5091823;28;20621;-41
2023/01/05 01:18:15;;;;;;;14.13;5.13;;;11.30;99.90;;;;;;5092971;28;20507;-42
2023/01/05 01:20:41;;;;;;;15.57;4.80;;;11.30;99.90;;;;;;5072829;28;20210;-42
2023/01/05 01:23:07;;;;;;;13.27;5.07;;;11.30;99.90;;;;;;5092779;28;20189;-41
2023/01/05 01:25:33;;;;;;;14.07;5.20;;;11.30;99.90;;;;;;5093044;28;20430;-42
2023/01/05 01:27:58;;;;;;;18.80;4.90;;;11.20;99.90;;;;;;5092572;28;20429;-42
2023/01/05 01:30:24;;;;;;;15.93;5.10;;;11.20;99.90;;;;;;5092174;28;20309;-42
2023/01/05 01:32:49;;;;;;;16.57;4.90;;;11.20;99.90;;;;;;5074674;28;20195;-42
2023/01/05 01:35:15;;;;;;;14.70;4.60;;;11.20;99.90;;;;;;5092716;28;20241;-43
2023/01/05 01:37:41;;;;;;;12.93;4.90;;;11.30;99.90;;;;;;5092278;28;20577;-41
2023/01/05 01:40:07;;;;;;;14.63;5.40;;;11.20;99.90;;;;;;5073257;28;20206;-42
2023/01/05 01:42:33;;;;;;;13.73;5.17;;;11.20;99.90;;;;;;5092438;28;20212;-42
2023/01/05 01:45:04;;;;;;;16.20;4.80;;;11.20;99.90;;;;;;5092427;28;20461;-40
2023/01/05 01:47:41;;;;;;;12.73;5.53;;;11.30;99.90;;;;;;5092636;28;20176;-41
2023/01/05 01:50:23;;;;;;;20.33;5.20;;;11.30;99.90;;;;;;5091672;28;20457;-42
2023/01/05 01:52:53;;;;;;;13.53;4.60;;;11.30;99.90;;;;;;5092348;28;20509;-42
2023/01/05 01:55:20;;;;;;;16.23;5.83;;;11.30;99.90;;;;;;5092102;28;20418;-41
2023/01/05 01:57:47;;;;;;;19.77;5.37;;;11.30;99.90;;;;;;5091299;28;20488;-42
2023/01/05 02:00:13;;;;;;;16.80;5.20;;;11.30;99.90;;;;;;5090147;28;21066;-43
2023/01/05 02:02:39;;;;;;;18.00;6.13;;;11.30;99.90;;;;;;5090980;28;20494;-42
2023/01/05 02:05:10;;;;;;;13.90;4.80;;;11.30;99.90;;;;;;5091822;28;20438;-35
2023/01/05 02:07:43;;;;;;;19.77;5.60;;;11.20;99.90;;;;;;5074106;28;20478;-35
2023/01/05 02:10:09;;;;;;;18.30;5.07;;;11.20;99.90;;;;;;5091411;28;20454;-34
2023/01/05 02:12:53;;;;;;;13.93;4.90;;;11.20;99.90;;;;;;5092144;28;20936;-34
2023/01/05 02:15:35;;;;;;;14.60;6.30;;;11.20;99.90;;;;;;5091693;28;20410;-34
2023/01/05 02:18:24;;;;;;;13.20;5.03;;;11.20;99.90;;;;;;5091918;28;20403;-34
2023/01/05 02:21:01;;;;;;;15.07;5.63;;;11.20;99.90;;;;;;5089622;28;20493;-34
2023/01/05 02:24:06;;;;;;;14.10;5.47;;;11.20;99.90;;;;;;5091919;28;20402;-34
2023/01/05 02:26:54;;;;;;;11.80;4.77;;;11.20;99.90;;;;;;5091495;28;20415;-34
2023/01/05 02:29:36;;;;;;;13.87;4.87;;;11.20;99.90;;;;;;5091004;28;21160;-34
2023/01/05 02:32:15;;;;;;;19.40;5.67;;;11.20;99.90;;;;;;5091575;28;20464;-34
2023/01/05 02:35:07;;;;;;;10.50;4.70;;;11.20;99.90;;;;;;5090132;28;20422;-34
2023/01/05 02:38:18;;;;;;;11.73;5.00;;;11.20;99.90;;;;;;5090974;28;20521;-34
2023/01/05 02:40:48;;;;;;;15.30;4.57;;;11.20;99.90;;;;;;5074831;28;20472;-34
2023/01/05 02:43:21;;;;;;;10.47;4.53;;;11.20;99.90;;;;;;5091212;28;20471;-34
2023/01/05 02:45:48;;;;;;;11.90;4.50;;;11.20;99.90;;;;;;5091570;28;20467;-34
2023/01/05 02:48:14;;;;;;;11.90;4.90;;;11.20;99.90;;;;;;5091179;28;20423;-34
2023/01/05 02:50:45;;;;;;;16.20;4.80;;;11.20;99.90;;;;;;5090139;28;20819;-34
2023/01/05 02:53:22;;;;;;;13.93;5.23;;;11.20;99.90;;;;;;5089863;28;20411;-34
2023/01/05 02:56:06;;;;;;;18.00;4.90;;;11.20;99.90;;;;;;5091346;28;20782;-34
2023/01/05 02:58:58;;;;;;;17.70;5.30;;;11.20;99.90;;;;;;5091126;28;20421;-34
2023/01/05 03:01:34;;;;;;;15.43;5.20;;;11.20;99.90;;;;;;5091090;28;20522;-34
2023/01/05 03:04:13;;;;;;;15.23;5.23;;;11.10;99.90;;;;;;5090546;28;20449;-34
2023/01/05 03:06:47;;;;;;;13.90;5.37;;;11.10;99.90;;;;;;5091212;28;20861;-34
2023/01/05 03:09:16;;;;;;;20.70;5.10;;;11.10;99.90;;;;;;5090275;28;20424;-34
2023/01/05 03:15:09;;;;;;;20.90;5.30;;;11.20;99.90;;;;;;5090919;28;20439;-34
2023/01/05 03:17:42;;;;;;;13.30;5.20;;;11.10;99.90;;;;;;5090870;28;20435;-34
2023/01/05 03:20:08;;;;;;;16.57;4.67;;;11.10;99.90;;;;;;5087325;28;20963;-34
2023/01/05 03:37:02;;;;;;;21.73;6.47;;;11.10;99.90;;;;;;5090553;28;20410;-34
2023/01/05 03:39:30;;;;;;;17.40;5.40;;;11.00;99.90;;;;;;5089697;28;20551;-34
2023/01/05 03:41:57;;;;;;;12.53;4.93;;;11.00;99.90;;;;;;5089433;28;20434;-34
2023/01/05 03:44:23;;;;;;;17.23;5.30;;;11.00;99.90;;;;;;5090261;28;20449;-34
2023/01/05 03:46:50;;;;;;;18.57;7.37;;;11.00;99.90;;;;;;5090441;28;20526;-34
2023/01/05 03:49:16;;;;;;;13.17;5.10;;;11.00;99.90;;;;;;5089654;28;20192;-34
2023/01/05 03:51:42;;;;;;;10.90;4.60;;;11.00;99.90;;;;;;5090213;28;20880;-34
2023/01/05 03:54:08;;;;;;;14.27;4.87;;;11.00;99.90;;;;;;5090066;28;20422;-34
2023/01/05 03:56:34;;;;;;;11.37;5.47;;;11.00;99.90;;;;;;5090127;28;20418;-34
2023/01/05 03:58:59;;;;;;;16.77;5.37;;;11.00;99.90;;;;;;5089890;28;20869;-34
2023/01/05 04:01:25;;;;;;;20.63;4.83;;;11.00;99.90;;;;;;5089970;28;20198;-34
2023/01/05 04:03:51;;;;;;;14.67;5.67;;;11.00;99.90;;;;;;5090278;28;20195;-34
2023/01/05 04:06:16;;;;;;;18.47;5.23;;;10.90;99.90;;;;;;5090044;28;20188;-34
2023/01/05 04:08:42;;;;;;;11.50;5.50;;;11.00;99.90;;;;;;5090080;28;20260;-34
2023/01/05 04:11:19;;;;;;;13.37;4.77;;;11.00;99.90;;;;;;5087944;28;20637;-34
2023/01/05 04:13:45;;;;;;;14.10;5.77;;;11.00;99.90;;;;;;5090044;28;20204;-34
2023/01/05 04:16:11;;;;;;;10.53;6.63;;;11.00;99.90;;;;;;5089834;28;20513;-34
2023/01/05 04:18:37;;;;;;;19.40;5.73;;;11.00;99.90;;;;;;5090025;28;20179;-34
2023/01/05 04:21:04;;;;;;;25.63;5.77;;;11.00;99.90;;;;;;5087522;28;20410;-34
2023/01/05 04:23:30;;;;;;;18.87;6.47;;;11.00;99.90;;;;;;5089993;28;20275;-34
2023/01/05 04:25:55;;;;;;;12.70;5.33;;;10.90;99.90;;;;;;5089906;28;20414;-34
2023/01/05 04:28:21;;;;;;;17.40;6.00;;;11.00;99.90;;;;;;5090050;28;20422;-34
2023/01/05 04:30:52;;;;;;;18.00;6.37;;;11.00;99.90;;;;;;5089283;28;21023;-34
2023/01/05 04:33:18;;;;;;;15.40;5.40;;;11.00;99.90;;;;;;5089863;28;20173;-34
2023/01/05 04:35:44;;;;;;;20.13;5.93;;;11.00;99.90;;;;;;5088453;28;20419;-34
2023/01/05 04:38:11;;;;;;;17.40;5.43;;;11.00;99.90;;;;;;5089828;28;20909;-34
2023/01/05 04:40:37;;;;;;;22.07;6.40;;;11.00;99.90;;;;;;5089313;28;20517;-34
2023/01/05 04:43:03;;;;;;;17.30;5.60;;;11.00;99.90;;;;;;5089744;28;20521;-34
2023/01/05 04:45:28;;;;;;;16.83;6.60;;;11.00;99.90;;;;;;5089927;28;20421;-34
2023/01/05 04:47:54;;;;;;;16.80;6.03;;;11.00;99.90;;;;;;5088318;28;20505;-34
2023/01/05 04:50:20;;;;;;;17.20;5.80;;;10.90;99.90;;;;;;5088870;28;20584;-34
2023/01/05 04:52:46;;;;;;;19.60;5.80;;;11.00;99.90;;;;;;5089778;28;20267;-34
2023/01/05 04:55:12;;;;;;;19.40;5.60;;;10.90;99.90;;;;;;5089631;28;20185;-34
2023/01/05 04:57:38;;;;;;;21.90;6.30;;;11.00;99.90;;;;;;5089585;28;20224;-34
2023/01/05 05:00:04;;;;;;;15.07;5.60;;;11.00;99.90;;;;;;5087851;28;20212;-34
2023/01/05 05:02:31;;;;;;;15.30;5.37;;;11.00;99.90;;;;;;5089518;28;20426;-34
2023/01/05 05:04:56;;;;;;;18.37;4.93;;;11.00;99.90;;;;;;5088242;28;20434;-34
2023/01/05 05:07:22;;;;;;;13.60;5.30;;;11.00;99.90;;;;;;5089634;28;20476;-34
2023/01/05 05:09:48;;;;;;;14.80;4.90;;;10.90;99.90;;;;;;5088872;28;20212;-34
2023/01/05 05:12:14;;;;;;;18.33;5.57;;;10.90;99.90;;;;;;5090246;28;20216;-34
2023/01/05 05:14:39;;;;;;;16.17;6.70;;;10.90;99.90;;;;;;5093012;28;20268;-34
2023/01/05 05:17:05;;;;;;;14.40;4.90;;;10.90;99.90;;;;;;5093139;28;20514;-34
2023/01/05 05:19:32;;;;;;;18.83;5.83;;;10.90;99.90;;;;;;5090852;28;20189;-34
2023/01/05 05:21:57;;;;;;;12.63;5.43;;;10.90;99.90;;;;;;5093219;28;20189;-34
2023/01/05 05:24:23;;;;;;;19.33;5.87;;;10.90;99.90;;;;;;5092872;28;20414;-34
2023/01/05 05:26:49;;;;;;;11.57;5.57;;;10.90;99.90;;;;;;5093175;28;20667;-34
2023/01/05 05:29:15;;;;;;;15.40;5.40;;;10.90;99.90;;;;;;5092420;28;20192;-34
2023/01/05 05:31:41;;;;;;;22.43;6.00;;;10.90;99.90;;;;;;5092884;28;20227;-34
2023/01/05 05:34:07;;;;;;;13.80;5.23;;;10.90;99.90;;;;;;5091390;28;20287;-34
2023/01/05 05:36:33;;;;;;;14.20;5.47;;;10.90;99.90;;;;;;5092804;28;20568;-34
2023/01/05 05:38:58;;;;;;;18.33;5.47;;;10.90;99.90;;;;;;5092333;28;20180;-34
2023/01/05 05:41:24;;;;;;;18.63;6.00;;;10.80;99.90;;;;;;5092514;28;20434;-34
2023/01/05 05:43:50;;;;;;;19.57;6.50;;;10.80;99.90;;;;;;5092725;28;20692;-34
2023/01/05 05:46:16;;;;;;;17.53;6.13;;;10.90;99.90;;;;;;5092414;28;20195;-34
2023/01/05 05:48:41;;;;;;;14.93;6.10;;;10.90;99.90;;;;;;5092400;28;20207;-34
2023/01/05 05:51:07;;;;;;;20.30;6.03;;;10.80;99.90;;;;;;5090317;28;20212;-34
2023/01/05 05:53:33;;;;;;;15.10;5.40;;;10.90;99.90;;;;;;5090272;28;20199;-34
2023/01/05 05:55:58;;;;;;;17.17;5.47;;;10.80;99.90;;;;;;5092136;28;20193;-34
2023/01/05 05:58:24;;;;;;;15.63;5.27;;;10.80;99.90;;;;;;5092144;28;20411;-34
2023/01/05 06:00:50;;;;;;;11.77;5.40;;;10.80;99.90;;;;;;5091555;28;20670;-34
2023/01/05 06:03:16;;;;;;;20.40;5.60;;;10.80;99.90;;;;;;5092162;28;20186;-34
2023/01/05 06:05:43;;;;;;;20.27;5.70;;;10.80;99.90;;;;;;5103539;28;20445;-34
2023/01/05 06:08:08;;;;;;;19.90;5.50;;;10.80;99.90;;;;;;5094941;28;20188;-34
2023/01/05 06:10:34;;;;;;;17.80;5.03;;;10.80;99.90;;;;;;5089894;28;20894;-34
2023/01/05 06:13:00;;;;;;;18.33;7.17;;;10.90;99.90;;;;;;5090550;28;20589;-34
2023/01/05 06:15:25;;;;;;;13.37;5.40;;;10.80;99.90;;;;;;5072408;28;20181;-34
2023/01/05 06:17:51;;;;;;;17.53;5.40;;;10.90;99.90;;;;;;5091717;28;20189;-34
2023/01/05 06:20:17;;;;;;;15.43;5.70;;;10.80;99.90;;;;;;5090139;28;20185;-34
2023/01/05 06:22:43;;;;;;;14.03;5.90;;;10.80;99.90;;;;;;5091926;28;20184;-34
2023/01/05 06:25:10;;;;;;;18.23;6.57;;;10.80;99.90;;;;;;5090769;28;20250;-34
2023/01/05 06:27:35;;;;;;;18.73;6.13;;;10.80;99.90;;;;;;5091642;28;20475;-34
2023/01/05 06:30:03;;;;;;;14.83;6.20;;;10.80;99.90;;;;;;5089590;28;20438;-34
2023/01/05 06:32:28;;;;;;;21.60;5.87;;;10.80;99.90;;;;;;5091335;28;20193;-34
2023/01/05 06:34:54;;;;;;;14.63;6.17;;;10.80;99.90;;;;;;5091557;28;20409;-34
2023/01/05 06:37:20;;;;;;;19.20;7.40;;;10.80;99.90;;;;;;5091091;28;20191;-34
2023/01/05 06:39:46;;;;;;;15.80;7.23;;;10.80;99.90;;;;;;5090921;28;20211;-34
2023/01/05 06:42:11;;;;;;;17.83;6.03;;;10.80;99.90;;;;;;5091394;28;20426;-34
2023/01/05 06:44:37;;;;;;;13.43;5.13;;;10.80;99.90;;;;;;5091229;28;20181;-34
2023/01/05 06:47:03;;;;;;;17.70;6.60;;;10.80;99.90;;;;;;5091311;28;20189;-34
2023/01/05 06:49:28;;;;;;;16.50;6.60;;;10.80;99.90;;;;;;5072559;28;20192;-34
2023/01/05 06:51:54;;;;;;;15.73;7.47;;;10.70;99.90;;;;;;5091161;28;20299;-34
2023/01/05 06:54:20;;;;;;;19.37;6.80;;;10.70;99.90;;;;;;5091089;28;20264;-34
2023/01/05 06:56:45;;;;;;;18.97;7.43;;;10.70;99.90;;;;;;5091274;28;20188;-34
2023/01/05 06:59:12;;;;;;;16.20;6.10;;;10.70;99.90;;;;;;5090568;28;20176;-34
2023/01/05 07:01:38;;;;;;;24.10;7.90;;;10.70;99.90;;;;;;5072735;28;20184;-34
2023/01/05 07:04:04;;;;;;;12.57;5.73;;;10.70;99.90;;;;;;5090968;28;20968;-34
2023/01/05 07:06:30;;;;;;;13.00;7.00;;;10.70;99.90;;;;;;5087514;28;20438;-34
2023/01/05 07:08:55;;;;;;;15.10;7.27;;;10.60;99.90;;;;;;5089287;28;20437;-34
2023/01/05 07:11:21;;;;;;;18.03;6.63;;;10.70;99.90;;;;;;5072295;28;20462;-34
2023/01/05 07:13:51;;;;;;;9.93;6.60;;;10.60;99.90;;;;;;5106294;28;20331;-34
2023/01/05 07:16:17;;;;;;;12.70;6.27;;;10.70;99.90;;;;;;5090755;28;20426;-34
2023/01/05 07:18:43;;;;;;;13.73;7.63;;;10.60;99.90;;;;;;5090929;28;20831;-34
2023/01/05 07:21:09;;;;;;;13.03;6.80;;;10.70;99.90;;;;;;5088592;28;20440;-34
2023/01/05 07:23:37;;;;;;;14.53;8.10;;;10.70;99.90;;;;;;5088960;28;21059;-34
2023/01/05 07:26:05;;;;;;;16.63;6.90;;;10.70;99.90;;;;;;5090050;28;20433;-34
2023/01/05 07:28:30;;;;;;;20.13;7.80;;;10.70;99.90;;;;;;5071825;28;20430;-34
2023/01/05 07:30:56;;;;;;;18.00;8.83;;;10.70;99.90;;;;;;5089742;28;20458;-34
2023/01/05 07:33:22;;;;;;;17.50;8.97;;;10.70;99.90;;;;;;5090736;28;20319;-34
2023/01/05 07:35:48;;;;;;;18.70;7.87;;;10.70;99.90;;;;;;5090045;28;20173;-34
2023/01/05 07:38:14;;;;;;;19.53;9.57;;;10.70;99.90;;;;;;5090553;28;20172;-34
2023/01/05 07:40:39;;;;;;;16.60;7.83;;;10.80;99.90;;;;;;5089754;28;20565;-34
2023/01/05 07:43:05;;;;;;;14.87;8.40;;;10.80;99.90;;;;;;5090350;28;20207;-34
2023/01/05 07:45:31;;;;;;;17.70;7.60;;;10.80;99.90;;;;;;5090424;28;20258;-34
2023/01/05 07:47:56;;;;;;;23.63;8.97;;;10.80;99.90;;;;;;5090338;28;20194;-34
2023/01/05 07:50:22;;;;;;;21.57;8.80;;;10.80;99.90;;;;;;5089153;28;20567;-34
2023/01/05 07:52:48;;;;;;;24.60;8.43;;;10.80;99.90;;;;;;5089893;28;20257;-34
2023/01/05 07:55:13;;;;;;;19.57;8.50;;;10.70;99.90;;;;;;5080162;28;20953;-34
2023/01/05 07:57:39;;;;;;;22.30;9.63;;;10.60;99.90;;;;;;5089851;28;20187;-34
2023/01/05 08:00:06;;;;;;;20.13;8.33;;;10.70;99.90;;;;;;5089774;28;20181;-34
2023/01/05 08:02:32;;;;;;;14.33;9.00;;;10.70;99.90;;;;;;5072179;28;20188;-34
2023/01/05 08:04:58;;;;;;;21.30;8.83;;;10.70;99.90;;;;;;5090013;28;20450;-34
2023/01/05 08:07:23;;;;;;;21.53;10.03;;;10.70;99.90;;;;;;5089992;28;20179;-34
2023/01/05 08:13:58;;;;;;;26.90;8.00;;;10.70;99.90;;;;;;5090117;28;20717;-34
2023/01/05 08:15:19;;;;;;;21.13;7.90;;;10.70;99.90;;;;;;5089746;28;20506;-34
2023/01/05 08:17:45;;;;;;;21.40;8.73;;;10.70;99.90;;;;;;5089827;28;20414;-34
2023/01/05 08:20:10;;;;;;;22.23;9.43;;;10.70;99.90;;;;;;5088369;28;20185;-34
2023/01/05 08:22:36;;;;;;;20.77;8.03;;;10.80;99.90;;;;;;5089848;28;20211;-34
2023/01/05 08:25:02;;;;;;;21.77;8.40;;;10.80;99.90;;;;;;5089890;28;20191;-34
2023/01/05 08:27:28;;;;;;;13.47;7.17;;;10.80;99.90;;;;;;5089662;28;20177;-34
2023/01/05 08:29:54;;;;;;;23.80;7.63;;;10.80;99.90;;;;;;5089041;28;20441;-34
2023/01/05 08:32:19;;;;;;;18.13;7.60;;;10.80;99.90;;;;;;5088624;28;20301;-34
2023/01/05 08:34:45;;;;;;;15.07;7.37;;;10.70;99.90;;;;;;5089880;28;20181;-34
2023/01/05 08:37:10;;;;;;;14.97;7.10;;;10.70;99.90;;;;;;5089710;28;20187;-34
2023/01/05 08:39:36;;;;;;;21.93;7.40;;;10.80;99.90;;;;;;5089162;28;20185;-35
2023/01/05 08:42:02;;;;;;;21.53;8.63;;;10.80;99.90;;;;;;5089603;28;20549;-34
2023/01/05 08:44:27;;;;;;;17.97;6.60;;;10.80;99.90;;;;;;5079364;28;20241;-34
2023/01/05 08:46:53;;;;;;;16.67;7.10;;;10.80;99.90;;;;;;5089980;28;20181;-34
2023/01/05 08:49:19;;;;;;;22.30;7.83;;;10.80;99.90;;;;;;5092195;28;20234;-34
2023/01/05 08:51:45;;;;;;;21.30;7.73;;;10.80;99.90;;;;;;5092861;28;20260;-34
2023/01/05 08:54:11;;;;;;;17.23;6.80;;;10.70;99.90;;;;;;5092941;28;20191;-34
2023/01/05 08:56:37;;;;;;;24.03;8.20;;;10.80;99.90;;;;;;5093173;28;20188;-34
2023/01/05 08:59:02;;;;;;;21.10;8.93;;;10.80;99.90;;;;;;5092675;28;20419;-34
2023/01/05 09:01:29;;;;;;;18.13;9.17;;;10.80;99.90;;;;;;5075907;28;20268;-34
2023/01/05 09:03:55;;;;;;;20.33;9.70;;;10.80;99.90;;;;;;5092887;28;20644;-34
2023/01/05 09:06:21;;;;;;;20.87;8.37;;;10.80;99.90;;;;;;5093110;28;20422;-34
2023/01/05 09:08:47;;;;;;;22.03;8.90;;;10.90;99.90;;;;;;5093464;28;20996;-34
2023/01/05 09:11:13;;;;;;;21.50;9.60;;;10.80;99.90;;;;;;5092432;28;20214;-34
2023/01/05 09:13:40;;;;;;;19.03;8.40;;;10.90;99.90;;;;;;5093241;28;20497;-34
2023/01/05 09:16:06;;;;;;;25.43;8.90;;;10.90;99.90;;;;;;5093057;28;20181;-34
2023/01/05 09:18:31;;;;;;;17.10;8.33;;;10.90;99.90;;;;;;5074930;28;20955;-34
2023/01/05 09:20:57;;;;;;;16.30;10.10;;;10.90;99.90;;;;;;5090938;28;20419;-34
2023/01/05 09:23:23;;;;;;;23.60;9.80;;;10.90;99.90;;;;;;5093036;28;20188;-34
2023/01/05 09:25:49;;;;;;;25.53;10.67;;;10.90;99.90;;;;;;5092838;28;20435;-34
2023/01/05 09:28:14;;;;;;;26.50;10.10;;;10.90;99.90;;;;;;5092910;28;20237;-34
2023/01/05 09:30:40;;;;;;;24.00;9.70;;;10.90;99.90;;;;;;5092150;28;20219;-34
2023/01/05 09:33:06;;;;;;;20.10;10.10;;;11.00;99.90;;;;;;5092737;28;20196;-34
2023/01/05 09:35:31;;;;;;;25.77;10.33;;;11.00;99.90;;;;;;5092616;28;20659;-34
2023/01/05 09:37:57;;;;;;;21.37;10.60;;;11.00;99.90;;;;;;5092658;28;20188;-34
2023/01/05 09:40:23;;;;;;;24.63;10.10;;;11.00;99.90;;;;;;5092119;28;20192;-34
2023/01/05 09:42:50;;;;;;;23.07;10.40;;;11.00;99.90;;;;;;5092687;28;20185;-34
2023/01/05 09:45:25;;;;;;;19.73;10.10;;;11.00;99.90;;;;;;5092497;28;20418;-34
2023/01/05 09:47:53;;;;;;;25.53;11.63;;;11.10;99.90;;;;;;5091250;28;20406;-34
2023/01/05 09:50:22;;;;;;;24.90;10.60;;;11.00;99.90;;;;;;5090346;28;20513;-34
2023/01/05 09:52:50;;;;;;;18.20;8.70;;;11.00;99.90;;;;;;5091159;28;20506;-34
2023/01/05 09:55:17;;;;;;;25.27;10.30;;;11.00;99.90;;;;;;5091398;28;20780;-34
2023/01/05 09:57:50;;;;;;;20.93;9.63;;;11.00;99.90;;;;;;5091115;28;20422;-34
2023/01/05 10:00:17;;;;;;;21.97;9.00;;;11.10;99.90;;;;;;5090546;28;20422;-34
2023/01/05 10:02:48;;;;;;;27.60;11.43;;;11.10;99.90;;;;;;5091968;28;20427;-34
2023/01/05 10:05:14;;;;;;;18.83;9.40;;;11.10;99.90;;;;;;5092026;28;20503;-34
2023/01/05 10:07:46;;;;;;;26.37;10.40;;;11.10;99.90;;;;;;5092179;28;20892;-34
2023/01/05 10:10:40;;;;;;;26.93;10.30;;;11.10;99.90;;;;;;5091415;28;20410;-34
2023/01/05 10:13:17;;;;;;;23.37;10.70;;;11.10;99.90;;;;;;5062886;28;20415;-34
2023/01/05 10:15:47;;;;;;;22.77;9.33;;;11.10;99.90;;;;;;5091761;28;20425;-34
2023/01/05 10:18:27;;;;;;;20.83;8.33;;;11.10;99.90;;;;;;5091998;28;20422;-34
2023/01/05 10:21:03;;;;;;;21.30;8.80;;;11.10;99.90;;;;;;5090214;28;20417;-34
2023/01/05 10:23:32;;;;;;;21.73;9.20;;;11.10;99.90;;;;;;5091650;28;20414;-34
2023/01/05 10:26:11;;;;;;;26.70;9.87;;;11.10;99.90;;;;;;5091731;28;20426;-34
2023/01/05 10:29:01;;;;;;;22.80;8.30;;;11.10;99.90;;;;;;5091790;28;20508;-34
2023/01/05 10:31:53;;;;;;;18.23;7.07;;;11.10;99.90;;;;;;5073251;28;20465;-34
2023/01/05 10:34:38;;;;;;;17.03;7.23;;;11.10;99.90;;;;;;5080029;28;20481;-34
2023/01/05 10:37:24;;;;;;;20.87;7.83;;;11.10;99.90;;;;;;5090422;28;20406;-34
2023/01/05 10:40:02;;;;;;;24.87;9.17;;;11.10;99.90;;;;;;5090706;28;20415;-34
2023/01/05 10:42:49;;;;;;;21.90;7.80;;;11.10;99.90;;;;;;5091254;28;21022;-34
2023/01/05 10:45:18;;;;;;;14.20;6.37;;;11.20;99.90;;;;;;5091520;28;20816;-34
2023/01/05 10:47:45;;;;;;;15.90;6.87;;;11.30;99.90;;;;;;5091304;28;20426;-34
2023/01/05 10:50:42;;;;;;;18.67;6.70;;;11.30;99.90;;;;;;5090638;28;20414;-34
2023/01/05 10:53:12;;;;;;;22.03;7.27;;;11.30;99.90;;;;;;5090310;28;20419;-34
2023/01/05 10:56:04;;;;;;;22.70;6.97;;;11.40;99.90;;;;;;5091334;28;20414;-34
2023/01/05 10:58:33;;;;;;;22.10;6.70;;;11.40;99.90;;;;;;5087571;28;20422;-34
2023/01/05 11:01:18;;;;;;;21.43;7.63;;;11.40;99.90;;;;;;5090432;28;20431;-34
2023/01/05 11:03:46;;;;;;;26.03;6.77;;;11.40;99.90;;;;;;5090939;28;20438;-34
2023/01/05 11:06:21;;;;;;;21.33;7.77;;;11.40;99.90;;;;;;5072987;28;20454;-34
2023/01/05 11:08:47;;;;;;;28.10;7.03;;;11.40;99.90;;;;;;5090902;28;20780;-34
2023/01/05 11:11:21;;;;;;;18.47;7.10;;;11.40;99.90;;;;;;5089671;28;20552;-34
2023/01/05 11:13:49;;;;;;;20.67;5.87;;;11.40;99.90;;;;;;5090762;28;20993;-34
2023/01/05 11:16:25;;;;;;;17.07;6.07;;;11.40;99.90;;;;;;5090785;28;20427;-34
2023/01/05 11:18:57;;;;;;;19.67;6.03;;;11.40;99.90;;;;;;5090665;28;20410;-34
2023/01/05 11:21:25;;;;;;;23.73;6.87;;;11.40;99.90;;;;;;5089776;28;20422;-34
2023/01/05 11:23:56;;;;;;;21.17;6.33;;;11.40;99.90;;;;;;5090549;28;20428;-34
2023/01/05 11:26:34;;;;;;;20.63;6.53;;;11.50;99.90;;;;;;5073247;28;20442;-34
2023/01/05 11:29:10;;;;;;;15.27;6.70;;;11.50;99.90;;;;;;5071876;28;20460;-34
2023/01/05 11:31:56;;;;;;;18.33;6.90;;;11.50;99.90;;;;;;5090458;28;20476;-34
2023/01/05 11:34:33;;;;;;;15.60;5.77;;;11.40;99.90;;;;;;5090404;28;20423;-34
2023/01/05 11:37:11;;;;;;;22.50;7.27;;;11.40;99.90;;;;;;5090620;28;20421;-34
2023/01/05 11:39:46;;;;;;;15.77;6.23;;;11.40;99.90;;;;;;5089901;28;20493;-34
2023/01/05 11:42:14;;;;;;;17.57;6.10;;;11.40;99.90;;;;;;5090385;28;20432;-34
2023/01/05 11:44:50;;;;;;;20.00;6.10;;;11.50;99.90;;;;;;5072515;28;20510;-34
2023/01/05 11:47:26;;;;;;;16.20;6.20;;;11.50;99.90;;;;;;5090388;28;20430;-34
2023/01/05 11:50:12;;;;;;;16.43;6.53;;;11.50;99.90;;;;;;5089846;28;20437;-34
2023/01/05 11:52:41;;;;;;;27.50;6.60;;;11.50;99.90;;;;;;5090425;28;20471;-34
2023/01/05 11:55:19;;;;;;;19.03;5.70;;;11.40;99.90;;;;;;5090295;28;20399;-34
2023/01/05 11:57:45;;;;;;;16.33;6.07;;;11.50;99.90;;;;;;5090278;28;20777;-34
2023/01/05 12:00:57;;;;;;;17.67;6.47;;;11.50;99.90;;;;;;5089689;28;20506;-34
2023/01/05 12:03:38;;;;;;;17.67;6.00;;;11.40;99.90;;;;;;5081562;28;20418;-34
2023/01/05 12:06:15;;;;;;;19.40;6.10;;;11.40;99.90;;;;;;5090208;28;20406;-34
2023/01/05 12:08:59;;;;;;;19.83;6.57;;;11.40;99.90;;;;;;5090071;28;20422;-34
2023/01/05 12:11:35;;;;;;;15.40;5.67;;;11.50;99.90;;;;;;5089668;28;20587;-34
2023/01/05 12:14:36;;;;;;;16.57;5.43;;;11.50;99.90;;;;;;5089856;28;20509;-34
2023/01/05 12:17:21;;;;;;;18.27;5.80;;;11.50;99.90;;;;;;5089857;28;20539;-34
2023/01/05 12:20:11;;;;;;;16.17;4.97;;;11.60;99.90;;;;;;5070619;28;20464;-34
2023/01/05 12:23:16;;;;;;;16.20;5.80;;;11.60;99.90;;;;;;5093289;28;20409;-34
2023/01/05 12:25:55;;;;;;;16.93;4.77;;;11.60;99.90;;;;;;5079417;28;20400;-34
2023/01/05 12:28:39;;;;;;;13.90;5.10;;;11.60;99.90;;;;;;5093869;28;20455;-34
2023/01/05 12:31:26;;;;;;;14.33;5.30;;;11.60;99.90;;;;;;5093506;28;20457;-34
2023/01/05 12:34:21;;;;;;;14.37;5.70;;;11.60;99.90;;;;;;5093974;28;20406;-34
2023/01/05 12:37:03;;;;;;;19.03;5.20;;;11.60;99.90;;;;;;5093727;28;20401;-34
2023/01/05 12:39:39;;;;;;;15.37;5.23;;;11.60;99.90;;;;;;5075149;28;20414;-34
2023/01/05 12:42:36;;;;;;;13.43;5.27;;;11.60;99.90;;;;;;5093880;28;20436;-34
2023/01/05 12:45:20;;;;;;;15.97;5.60;;;11.60;99.90;;;;;;5060333;28;20913;-34
2023/01/05 12:47:57;;;;;;;13.67;4.50;;;11.60;99.90;;;;;;5093878;28;20414;-34
2023/01/05 12:50:29;;;;;;;13.43;4.20;;;11.60;99.90;;;;;;5092961;28;20402;-34
2023/01/05 12:53:24;;;;;;;15.43;5.10;;;11.60;99.90;;;;;;5093581;28;20754;-34
2023/01/05 12:55:55;;;;;;;19.60;5.47;;;11.60;99.90;;;;;;5072878;28;20834;-34
2023/01/05 12:58:23;;;;;;;13.77;4.53;;;11.60;99.90;;;;;;5093556;28;20418;-34
2023/01/05 13:00:51;;;;;;;15.53;5.10;;;11.60;99.90;;;;;;5092771;28;20419;-34
2023/01/05 13:03:23;;;;;;;17.13;4.87;;;11.70;99.90;;;;;;5093504;28;20812;-34
2023/01/05 13:06:05;;;;;;;11.23;5.23;;;11.70;99.90;;;;;;5093113;28;20438;-34
2023/01/05 13:08:37;;;;;;;10.03;4.47;;;11.70;99.90;;;;;;5093316;28;20409;-34
2023/01/05 13:11:16;;;;;;;11.20;3.50;;;11.70;99.90;;;;;;5074448;28;20968;-34
2023/01/05 13:13:48;;;;;;;10.53;3.43;;;11.80;99.90;;;;;;5093190;28;20413;-34
2023/01/05 13:16:22;;;;;;;21.80;4.57;;;11.80;99.90;;;;;;5092964;28;20427;-34
2023/01/05 13:19:22;;;;;;;9.83;4.03;;;11.80;99.90;;;;;;5093175;28;20484;-34
2023/01/05 13:21:51;;;;;;;19.20;3.87;;;11.80;99.90;;;;;;5074144;28;20448;-34
2023/01/05 13:24:30;;;;;;;14.63;4.47;;;11.80;99.90;;;;;;5074854;28;20414;-34
2023/01/05 13:26:58;;;;;;;11.43;4.43;;;11.80;99.90;;;;;;5092695;28;20414;-34